createdAt,value
2019-05-09T00:01:43.872Z,6.42
2019-05-09T00:04:22.995Z,5.95
2019-05-09T00:06:59.937Z,5.92
2019-05-09T00:09:38.290Z,6.30
2019-05-09T00:12:16.060Z,5.55
2019-05-09T00:14:54.100Z,5.65
2019-05-09T00:17:33.749Z,6.17
2019-05-09T00:20:33.246Z,6.60
2019-05-09T00:23:13.566Z,5.03
2019-05-09T00:25:51.070Z,6.25
2019-05-09T00:28:32.987Z,5.35
2019-05-09T00:31:15.815Z,6.17
2019-05-09T00:33:57.757Z,6.28
2019-05-09T00:36:35.321Z,5.70
2019-05-09T00:39:13.533Z,5.25
2019-05-09T00:41:50.730Z,5.87
2019-05-09T00:44:30.043Z,5.20
2019-05-09T00:47:24.027Z,4.97
2019-05-09T00:50:02.518Z,5.80
2019-05-09T00:52:40.047Z,5.67
2019-05-09T00:55:17.292Z,5.28
2019-05-09T00:57:54.600Z,5.28
2019-05-09T01:00:33.344Z,5.30
2019-05-09T01:03:11.323Z,5.40
2019-05-09T01:05:48.671Z,4.90
2019-05-09T01:08:25.985Z,5.70
2019-05-09T01:11:11.767Z,5.15
2019-05-09T01:13:43.435Z,4.72
2019-05-09T01:16:20.847Z,5.12
2019-05-09T01:18:58.672Z,5.78
2019-05-09T01:21:36.114Z,5.53
2019-05-09T01:24:13.939Z,5.20
2019-05-09T01:26:51.550Z,4.72
2019-05-09T01:29:29.932Z,5.20
2019-05-09T01:32:14.517Z,5.72
2019-05-09T01:34:53.112Z,5.10
2019-05-09T01:37:30.599Z,4.87
2019-05-09T01:40:08.318Z,5.92
2019-05-09T01:42:45.697Z,5.03
2019-05-09T01:45:23.686Z,4.90
2019-05-09T01:48:03.288Z,4.83
2019-05-09T01:50:43.109Z,5.37
2019-05-09T01:53:25.103Z,5.42
2019-05-09T01:56:03.755Z,5.00
2019-05-09T01:58:43.084Z,4.97
2019-05-09T02:01:20.918Z,4.87
2019-05-09T02:03:58.714Z,5.12
2019-05-09T02:06:36.110Z,4.80
2019-05-09T02:09:14.170Z,5.15
2019-05-09T02:11:51.505Z,4.87
2019-05-09T02:14:34.833Z,5.37
2019-05-09T02:17:57.730Z,5.35
2019-05-09T02:20:24.406Z,5.03
2019-05-09T02:23:03.720Z,4.85
2019-05-09T02:25:41.259Z,4.72
2019-05-09T02:28:18.893Z,5.25
2019-05-09T02:30:56.098Z,5.30
2019-05-09T02:33:34.683Z,5.53
2019-05-09T02:36:12.371Z,4.37
2019-05-09T02:38:49.723Z,6.00
2019-05-09T02:41:28.630Z,4.87
2019-05-09T02:44:09.294Z,4.47
2019-05-09T02:47:09.255Z,5.12
2019-05-09T02:49:48.602Z,4.47
2019-05-09T02:52:28.469Z,5.75
2019-05-09T02:55:05.051Z,4.70
2019-05-09T02:57:48.932Z,5.10
2019-05-09T03:00:35.866Z,5.37
2019-05-09T03:03:20.066Z,5.20
2019-05-09T03:05:59.663Z,5.00
2019-05-09T03:08:38.452Z,5.20
2019-05-09T03:11:18.543Z,5.10
2019-05-09T03:13:54.766Z,5.00
2019-05-09T03:16:32.567Z,4.72
2019-05-09T03:19:11.740Z,4.85
2019-05-09T03:21:53.479Z,5.53
2019-05-09T03:24:30.692Z,5.17
2019-05-09T03:27:13.319Z,5.03
2019-05-09T03:29:54.472Z,5.03
2019-05-09T03:32:32.058Z,5.47
2019-05-09T03:35:09.498Z,5.87
2019-05-09T03:37:49.975Z,4.83
2019-05-09T03:40:28.303Z,4.97
2019-05-09T03:43:07.927Z,4.72
2019-05-09T03:45:51.697Z,5.12
2019-05-09T03:48:36.880Z,5.60
2019-05-09T03:51:13.937Z,5.53
2019-05-09T03:53:51.421Z,5.20
2019-05-09T03:56:33.711Z,5.17
2019-05-09T03:59:11.174Z,5.62
2019-05-09T04:01:50.343Z,5.60
2019-05-09T04:04:28.665Z,4.83
2019-05-09T04:07:08.407Z,5.53
2019-05-09T04:09:45.306Z,5.50
2019-05-09T04:12:23.163Z,5.30
2019-05-09T04:15:12.960Z,5.92
2019-05-09T04:17:50.140Z,4.58
2019-05-09T04:20:28.171Z,6.33
2019-05-09T04:23:07.827Z,4.92
2019-05-09T04:25:51.228Z,5.60
2019-05-09T04:28:28.873Z,6.15
2019-05-09T04:31:07.402Z,7.28
2019-05-09T04:33:44.895Z,5.83
2019-05-09T04:36:38.804Z,6.37
2019-05-09T04:39:21.692Z,6.10
2019-05-09T04:42:03.014Z,4.62
2019-05-09T04:44:42.579Z,6.08
2019-05-09T04:47:23.290Z,5.83
2019-05-09T04:50:00.822Z,5.37
2019-05-09T04:52:40.032Z,5.47
2019-05-09T04:55:18.602Z,5.35
2019-05-09T04:57:57.219Z,5.10
2019-05-09T05:00:54.438Z,4.22
2019-05-09T05:03:32.230Z,4.90
2019-05-09T05:06:22.282Z,5.78
2019-05-09T05:08:59.588Z,5.85
2019-05-09T05:11:38.324Z,6.10
2019-05-09T05:14:22.120Z,5.85
2019-05-09T05:17:07.603Z,5.53
2019-05-09T05:19:40.644Z,4.80
2019-05-09T05:22:23.884Z,4.90
2019-05-09T05:25:03.540Z,5.20
2019-05-09T05:27:40.967Z,5.40
2019-05-09T05:30:18.897Z,5.15
2019-05-09T05:33:00.213Z,4.92
2019-05-09T05:35:50.529Z,6.50
2019-05-09T05:38:28.194Z,5.85
2019-05-09T05:41:07.866Z,5.90
2019-05-09T05:43:47.753Z,5.70
2019-05-09T05:46:37.953Z,6.20
2019-05-09T05:49:18.492Z,5.50
2019-05-09T05:51:57.531Z,5.33
2019-05-09T05:54:34.695Z,6.53
2019-05-09T05:57:12.088Z,7.05
2019-05-09T05:59:49.981Z,6.12
2019-05-09T06:02:28.100Z,5.53
2019-05-09T06:05:08.295Z,6.03
2019-05-09T06:07:44.846Z,6.33
2019-05-09T06:10:22.470Z,6.85
2019-05-09T06:12:59.813Z,5.95
2019-05-09T06:15:38.047Z,6.53
2019-05-09T06:18:18.166Z,6.00
2019-05-09T06:20:58.154Z,5.65
2019-05-09T06:23:33.811Z,6.50
2019-05-09T06:26:11.226Z,10.08
2019-05-09T06:28:49.065Z,6.87
2019-05-09T06:31:38.608Z,6.72
2019-05-09T06:34:18.434Z,9.25
2019-05-09T06:36:58.212Z,6.92
2019-05-09T06:39:35.064Z,6.85
2019-05-09T06:42:12.835Z,6.90
2019-05-09T06:45:18.152Z,6.35
2019-05-09T06:47:58.285Z,6.67
2019-05-09T06:50:35.016Z,7.70
2019-05-09T06:53:12.512Z,6.92
2019-05-09T06:55:49.845Z,7.15
2019-05-09T06:58:34.421Z,7.78
2019-05-09T07:01:37.516Z,6.65
2019-05-09T07:04:23.812Z,7.30
2019-05-09T07:07:20.060Z,7.62
2019-05-09T07:09:59.162Z,8.53
2019-05-09T07:12:37.952Z,8.05
2019-05-09T07:15:17.630Z,8.65
2019-05-09T07:17:54.841Z,8.45
2019-05-09T07:20:32.123Z,8.33
2019-05-09T07:23:11.137Z,7.25
2019-05-09T07:26:07.540Z,7.53
2019-05-09T07:28:45.321Z,7.30
2019-05-09T07:31:32.887Z,7.55
2019-05-09T07:34:20.018Z,8.10
2019-05-09T07:36:58.268Z,7.97
2019-05-09T07:39:37.851Z,8.30
2019-05-09T07:42:15.081Z,8.05
2019-05-09T07:44:52.775Z,7.72
2019-05-09T07:47:31.069Z,8.88
2019-05-09T07:50:09.149Z,7.53
2019-05-09T07:52:47.739Z,11.25
2019-05-09T07:55:27.287Z,8.20
2019-05-09T07:58:04.403Z,8.83
2019-05-09T08:00:42.078Z,8.40
2019-05-09T08:03:19.430Z,8.48
2019-05-09T08:05:57.958Z,7.95
2019-05-09T08:08:38.220Z,8.33
2019-05-09T08:11:14.370Z,7.00
2019-05-09T08:13:51.613Z,8.25
2019-05-09T08:16:41.105Z,8.08
2019-05-09T08:19:18.330Z,8.38
2019-05-09T08:21:57.518Z,10.10
2019-05-09T08:24:34.832Z,7.28
2019-05-09T08:27:13.105Z,8.43
2019-05-09T08:29:50.556Z,7.83
2019-05-09T08:32:28.624Z,8.10
2019-05-09T08:35:08.245Z,8.98
2019-05-09T08:37:47.583Z,7.83
2019-05-09T08:40:24.303Z,8.45
2019-05-09T08:43:02.533Z,8.95
2019-05-09T08:45:40.180Z,8.18
2019-05-09T08:48:18.446Z,7.05
2019-05-09T08:50:58.328Z,10.20
2019-05-09T08:53:37.962Z,7.17
2019-05-09T08:56:14.724Z,8.35
2019-05-09T08:58:51.948Z,8.23
2019-05-09T09:01:48.129Z,8.30
2019-05-09T09:04:08.617Z,9.75
2019-05-09T09:06:48.194Z,7.70
2019-05-09T09:09:25.029Z,10.53
2019-05-09T09:12:02.303Z,9.28
2019-05-09T09:14:40.125Z,10.10
2019-05-09T09:17:18.762Z,10.08
2019-05-09T09:20:00.839Z,9.15
2019-05-09T09:22:44.283Z,7.90
2019-05-09T09:25:21.751Z,8.58
2019-05-09T09:27:59.155Z,9.55
2019-05-09T09:30:38.588Z,8.80
2019-05-09T09:33:17.509Z,9.13
2019-05-09T09:35:54.333Z,9.78
2019-05-09T09:38:31.683Z,9.10
2019-05-09T09:41:08.875Z,8.78
2019-05-09T09:43:47.606Z,7.92
2019-05-09T09:46:28.365Z,8.08
2019-05-09T09:49:07.983Z,8.55
2019-05-09T09:51:44.858Z,7.97
2019-05-09T09:54:22.406Z,10.18
2019-05-09T09:57:00.302Z,8.50
2019-05-09T10:00:00.730Z,8.15
2019-05-09T10:02:38.828Z,7.40
2019-05-09T10:05:18.358Z,9.13
2019-05-09T10:07:55.284Z,14.35
2019-05-09T10:10:35.048Z,8.10
2019-05-09T10:13:13.088Z,9.53
2019-05-09T10:16:01.544Z,7.55
2019-05-09T10:18:58.048Z,8.55
2019-05-09T10:21:43.358Z,7.20
2019-05-09T10:24:32.480Z,9.53
2019-05-09T10:27:11.202Z,7.87
2019-05-09T10:29:48.749Z,7.30
2019-05-09T10:32:28.637Z,8.18
2019-05-09T10:35:05.361Z,8.80
2019-05-09T10:37:44.232Z,9.50
2019-05-09T10:40:24.924Z,9.13
2019-05-09T10:43:34.495Z,8.28
2019-05-09T10:46:08.350Z,8.08
2019-05-09T10:48:55.038Z,8.28
2019-05-09T10:51:32.376Z,8.75
2019-05-09T10:54:09.559Z,8.23
2019-05-09T10:56:48.749Z,8.60
2019-05-09T10:59:26.597Z,8.20
2019-05-09T11:02:04.267Z,9.70
2019-05-09T11:04:44.205Z,8.95
2019-05-09T11:07:20.866Z,8.43
2019-05-09T11:09:58.949Z,8.85
2019-05-09T11:12:36.945Z,8.60
2019-05-09T11:15:14.611Z,9.30
2019-05-09T11:18:08.230Z,10.75
2019-05-09T11:20:45.902Z,8.78
2019-05-09T11:23:23.147Z,8.85
2019-05-09T11:26:00.903Z,9.23
2019-05-09T11:28:38.790Z,9.58
2019-05-09T11:31:18.351Z,10.98
2019-05-09T11:33:57.697Z,10.85
2019-05-09T11:36:34.081Z,10.93
2019-05-09T11:39:11.554Z,9.40
2019-05-09T11:41:49.769Z,10.40
2019-05-09T11:44:27.324Z,10.65
2019-05-09T11:47:05.037Z,10.38
2019-05-09T11:49:48.127Z,10.05
2019-05-09T11:52:24.930Z,10.10
2019-05-09T11:55:02.271Z,9.85
2019-05-09T11:57:40.097Z,10.25
2019-05-09T12:00:18.106Z,10.70
2019-05-09T12:02:57.967Z,10.38
2019-05-09T12:05:37.787Z,10.58
2019-05-09T12:08:14.865Z,12.88
2019-05-09T12:10:52.427Z,10.43
2019-05-09T12:13:29.710Z,11.33
2019-05-09T12:16:07.802Z,10.90
2019-05-09T12:18:45.069Z,10.75
2019-05-09T12:21:22.818Z,10.95
2019-05-09T12:24:00.477Z,12.20
2019-05-09T12:26:39.092Z,10.88
2019-05-09T12:29:19.681Z,11.08
2019-05-09T12:31:56.263Z,10.45
2019-05-09T12:34:34.131Z,10.85
2019-05-09T12:37:11.655Z,10.63
2019-05-09T12:39:50.781Z,11.35
2019-05-09T12:42:29.218Z,10.48
2019-05-09T12:45:08.437Z,11.40
2019-05-09T12:47:46.939Z,12.18
2019-05-09T12:50:24.225Z,13.28
2019-05-09T12:53:01.687Z,11.35
2019-05-09T12:55:39.378Z,9.98
2019-05-09T12:58:29.377Z,9.98
2019-05-09T13:01:07.721Z,10.03
2019-05-09T13:03:44.990Z,10.55
2019-05-09T13:06:23.009Z,12.98
2019-05-09T13:09:00.332Z,9.68
2019-05-09T13:11:39.085Z,10.98
2019-05-09T13:14:19.204Z,10.95
2019-05-09T13:17:05.065Z,10.28
2019-05-09T13:19:53.986Z,11.48
2019-05-09T13:22:31.757Z,11.60
2019-05-09T13:25:09.723Z,10.80
2019-05-09T13:27:59.490Z,10.98
2019-05-09T13:30:38.039Z,9.48
2019-05-09T13:33:18.784Z,10.75
2019-05-09T13:35:58.155Z,10.70
2019-05-09T13:38:34.267Z,10.23
2019-05-09T13:41:11.613Z,10.95
2019-05-09T13:43:57.724Z,10.80
2019-05-09T13:46:28.520Z,10.55
2019-05-09T13:49:12.546Z,11.12
2019-05-09T13:51:51.126Z,9.75
2019-05-09T13:54:24.148Z,9.03
2019-05-09T13:57:01.731Z,9.48
2019-05-09T13:59:38.942Z,11.03
2019-05-09T14:02:18.754Z,11.15
2019-05-09T14:04:58.345Z,11.38
2019-05-09T14:07:37.724Z,10.80
2019-05-09T14:10:17.588Z,10.50
2019-05-09T14:13:05.757Z,10.20
2019-05-09T14:15:33.867Z,9.98
2019-05-09T14:18:11.157Z,10.48
2019-05-09T14:20:48.718Z,9.80
2019-05-09T14:23:35.095Z,9.55
2019-05-09T14:26:05.198Z,9.93
2019-05-09T14:28:42.811Z,10.35
2019-05-09T14:31:20.272Z,9.63
2019-05-09T14:33:58.537Z,9.95
2019-05-09T14:36:39.148Z,8.70
2019-05-09T14:39:15.347Z,9.00
2019-05-09T14:41:52.605Z,9.13
2019-05-09T14:44:30.844Z,8.38
2019-05-09T14:47:08.225Z,9.50
2019-05-09T14:49:50.016Z,9.75
2019-05-09T14:52:28.235Z,9.13
2019-05-09T14:55:04.757Z,7.92
2019-05-09T14:57:42.167Z,8.35
2019-05-09T15:00:19.941Z,8.95
2019-05-09T15:02:58.216Z,8.33
2019-05-09T15:05:37.852Z,7.67
2019-05-09T15:08:17.825Z,8.60
2019-05-09T15:10:58.061Z,9.30
2019-05-09T15:13:34.342Z,8.90
2019-05-09T15:16:12.184Z,9.90
2019-05-09T15:18:50.566Z,9.93
2019-05-09T15:21:30.210Z,9.75
2019-05-09T15:24:09.326Z,10.25
2019-05-09T15:26:47.922Z,10.50
2019-05-09T15:29:25.770Z,9.98
2019-05-09T15:32:06.415Z,11.15
2019-05-09T15:34:42.615Z,10.48
2019-05-09T15:37:20.128Z,12.23
2019-05-09T15:39:57.425Z,11.60
2019-05-09T15:42:34.867Z,11.38
2019-05-09T15:45:13.123Z,11.45
2019-05-09T15:47:50.746Z,10.70
2019-05-09T15:50:28.492Z,11.30
2019-05-09T15:53:08.359Z,12.20
2019-05-09T15:55:45.327Z,12.10
2019-05-09T15:58:23.090Z,13.00
2019-05-09T16:01:01.010Z,12.98
2019-05-09T16:03:38.491Z,13.15
2019-05-09T16:06:19.326Z,13.72
2019-05-09T16:08:55.087Z,15.20
2019-05-09T16:11:32.380Z,15.70
2019-05-09T16:14:09.871Z,16.65
2019-05-09T16:16:47.958Z,16.87
2019-05-09T16:19:26.449Z,18.07
2019-05-09T16:22:04.240Z,18.45
2019-05-09T16:24:41.665Z,18.42
2019-05-09T16:27:20.185Z,19.82
2019-05-09T16:29:58.077Z,18.12
2019-05-09T16:32:37.960Z,18.60
2019-05-09T16:35:18.218Z,19.67
2019-05-09T16:38:02.754Z,19.62
2019-05-09T16:40:35.532Z,19.92
2019-05-09T16:43:14.457Z,19.15
2019-05-09T16:45:51.943Z,19.77
2019-05-09T16:48:29.334Z,21.07
2019-05-09T16:51:07.920Z,22.67
2019-05-09T16:53:49.460Z,21.57
2019-05-09T16:56:25.460Z,20.35
2019-05-09T16:59:02.693Z,20.65
2019-05-09T17:01:46.642Z,20.75
2019-05-09T17:04:22.670Z,22.93
2019-05-09T17:07:00.347Z,21.68
2019-05-09T17:09:49.605Z,22.07
2019-05-09T17:12:26.921Z,23.55
2019-05-09T17:15:04.717Z,22.95
2019-05-09T17:17:43.740Z,23.80
2019-05-09T17:20:24.479Z,23.83
2019-05-09T17:23:14.790Z,24.18
2019-05-09T17:25:49.849Z,25.70
2019-05-09T17:28:28.425Z,23.85
2019-05-09T17:31:07.951Z,24.92
2019-05-09T17:33:45.161Z,25.27
2019-05-09T17:36:23.647Z,24.70
2019-05-09T17:41:32.695Z,27.10
2019-05-09T17:44:10.597Z,28.50
2019-05-09T17:46:48.267Z,27.80
2019-05-09T17:49:28.046Z,28.87
2019-05-09T17:52:07.610Z,29.60
2019-05-09T17:54:45.827Z,31.45
2019-05-09T17:57:23.326Z,32.30
2019-05-09T18:00:01.179Z,34.18
2019-05-09T18:02:42.674Z,32.93
2019-05-09T18:05:42.997Z,33.28
2019-05-09T18:08:48.447Z,35.75
2019-05-09T18:11:31.658Z,38.50
2019-05-09T18:14:09.073Z,39.05
2019-05-09T18:16:47.781Z,40.08
2019-05-09T18:19:25.475Z,40.38
2019-05-09T18:22:03.180Z,40.67
2019-05-09T18:24:41.317Z,39.00
2019-05-09T18:27:18.741Z,39.80
2019-05-09T18:29:58.333Z,38.70
2019-05-09T18:32:42.075Z,38.02
2019-05-09T18:35:21.631Z,37.58
2019-05-09T18:38:00.598Z,38.42
2019-05-09T18:40:38.299Z,40.80
2019-05-09T18:43:17.795Z,42.67
2019-05-09T18:45:57.799Z,43.20
2019-05-09T18:48:35.074Z,43.23
2019-05-09T18:51:12.875Z,45.30
2019-05-09T18:53:50.605Z,46.83
2019-05-09T18:56:28.768Z,60.33
2019-05-09T18:59:07.907Z,47.13
2019-05-09T19:01:45.306Z,47.20
2019-05-09T19:04:22.704Z,48.58
2019-05-09T19:07:00.372Z,47.95
2019-05-09T19:09:40.136Z,52.95
2019-05-09T19:12:17.481Z,53.08
2019-05-09T19:14:55.059Z,55.12
2019-05-09T19:17:51.059Z,54.53
2019-05-09T19:20:48.630Z,56.28
2019-05-09T19:23:26.477Z,56.05
2019-05-09T19:26:06.308Z,57.15
2019-05-09T19:28:44.196Z,58.75
2019-05-09T19:31:22.110Z,60.50
2019-05-09T19:34:00.344Z,61.40
2019-05-09T19:36:38.185Z,60.65
2019-05-09T19:39:15.781Z,58.48
2019-05-09T19:41:56.807Z,62.13
2019-05-09T19:44:40.393Z,62.15
2019-05-09T19:47:17.868Z,65.25
2019-05-09T19:49:55.187Z,65.92
2019-05-09T19:52:38.283Z,65.42
2019-05-09T19:55:13.707Z,65.00
2019-05-09T19:57:51.102Z,64.87
2019-05-09T20:00:34.832Z,66.60
2019-05-09T20:03:12.053Z,68.52
2019-05-09T20:05:49.975Z,68.28
2019-05-09T20:08:27.852Z,67.85
2019-05-09T20:11:15.467Z,65.97
2019-05-09T20:14:10.901Z,65.62
2019-05-09T20:16:51.298Z,66.57
2019-05-09T20:19:29.151Z,70.55
2019-05-09T20:22:07.271Z,66.85
2019-05-09T20:24:44.670Z,67.50
2019-05-09T20:27:22.234Z,67.22
2019-05-09T20:30:00.704Z,65.45
2019-05-09T20:32:38.564Z,66.55
2019-05-09T20:35:15.829Z,66.77
2019-05-09T20:37:53.338Z,67.58
2019-05-09T20:40:30.911Z,67.78
2019-05-09T20:43:08.699Z,65.97
2019-05-09T20:45:46.635Z,65.92
2019-05-09T20:48:26.691Z,68.45
2019-05-09T20:51:04.327Z,67.03
2019-05-09T20:53:51.535Z,69.60
2019-05-09T20:56:29.848Z,67.85
2019-05-09T20:59:07.849Z,64.95
2019-05-09T21:01:46.120Z,66.45
2019-05-09T21:04:35.625Z,64.75
2019-05-09T21:07:19.101Z,65.40
2019-05-09T21:09:57.126Z,64.72
2019-05-09T21:12:35.027Z,65.15
2019-05-09T21:15:12.684Z,63.83
2019-05-09T21:17:50.353Z,62.88
2019-05-09T21:20:27.893Z,62.70
2019-05-09T21:23:05.258Z,65.03
2019-05-09T21:25:43.100Z,65.12
2019-05-09T21:28:21.001Z,63.73
2019-05-09T21:30:58.506Z,65.05
2019-05-09T21:33:36.581Z,68.57
2019-05-09T21:36:13.957Z,66.97
2019-05-09T21:38:51.191Z,67.90
2019-05-09T21:41:28.936Z,71.90
2019-05-09T21:44:06.675Z,68.65
2019-05-09T21:46:45.314Z,68.17
2019-05-09T21:49:23.263Z,65.72
2019-05-09T21:52:00.606Z,70.62
2019-05-09T21:54:38.469Z,71.92
2019-05-09T21:57:15.879Z,70.80
2019-05-09T21:59:53.886Z,70.92
2019-05-09T22:02:31.509Z,72.10
2019-05-09T22:05:09.460Z,74.22
2019-05-09T22:07:46.908Z,76.02
2019-05-09T22:10:24.622Z,75.45
2019-05-09T22:13:02.049Z,77.00
2019-05-09T22:15:39.494Z,75.80
2019-05-09T22:18:16.852Z,81.45
2019-05-09T22:20:54.486Z,76.72
2019-05-09T22:23:32.067Z,78.75
2019-05-09T22:26:21.904Z,78.00
2019-05-09T22:28:59.958Z,84.30
2019-05-09T22:31:49.287Z,90.05
2019-05-09T22:34:27.066Z,85.12
2019-05-09T22:37:09.611Z,83.82
2019-05-09T22:39:47.574Z,82.10
2019-05-09T22:42:24.984Z,84.80
2019-05-09T22:45:02.755Z,82.82
2019-05-09T22:47:40.239Z,83.52
2019-05-09T22:50:18.581Z,81.22
2019-05-09T22:53:07.745Z,85.20
2019-05-09T22:55:45.226Z,85.25
2019-05-09T22:58:22.468Z,87.37
2019-05-09T23:00:59.754Z,87.92
2019-05-09T23:03:37.262Z,89.40
2019-05-09T23:06:14.643Z,90.95
2019-05-09T23:08:53.103Z,93.35
2019-05-09T23:11:31.223Z,88.62
2019-05-09T23:14:08.917Z,89.47
2019-05-09T23:16:50.084Z,90.07
2019-05-09T23:19:25.191Z,90.67
2019-05-09T23:22:03.602Z,93.65
2019-05-09T23:24:44.253Z,92.72
2019-05-09T23:27:20.566Z,92.55
2019-05-09T23:29:58.073Z,91.35
2019-05-09T23:32:39.458Z,92.72
2019-05-09T23:37:53.591Z,90.80
2019-05-09T23:40:30.975Z,91.67
2019-05-09T23:43:08.421Z,93.70
2019-05-09T23:45:46.587Z,95.55
2019-05-09T23:48:24.147Z,95.20
2019-05-09T23:51:01.964Z,95.00
2019-05-09T23:53:40.209Z,95.30
2019-05-09T23:56:36.020Z,97.50
2019-05-09T23:59:31.275Z,99.15
